createdAt,value
2023-02-28T00:01:31.354Z,101777.80
2023-02-28T00:03:59.713Z,101783.57
2023-02-28T00:06:27.824Z,101786.06
2023-02-28T00:08:55.958Z,101788.21
2023-02-28T00:11:24.225Z,101791.26
2023-02-28T00:13:52.297Z,101790.73
2023-02-28T00:16:23.682Z,101795.80
2023-02-28T00:18:52.346Z,101795.61
2023-02-28T00:21:21.263Z,101800.86
2023-02-28T00:23:49.614Z,101800.01
2023-02-28T00:26:20.031Z,101803.44
2023-02-28T00:28:49.997Z,101799.15
2023-02-28T00:31:18.008Z,101800.09
2023-02-28T00:33:46.182Z,101799.40
2023-02-28T00:36:16.227Z,101801.23
2023-02-28T00:38:44.278Z,101800.35
2023-02-28T00:41:12.855Z,101800.13
2023-02-28T00:43:41.353Z,101807.90
2023-02-28T00:46:09.755Z,101804.81
2023-02-28T00:48:37.954Z,101804.69
2023-02-28T00:51:06.779Z,101802.02
2023-02-28T00:53:34.953Z,101800.33
2023-02-28T00:56:03.958Z,101802.30
2023-02-28T00:58:33.756Z,101807.63
2023-02-28T01:01:02.041Z,101801.99
2023-02-28T01:03:30.224Z,101800.98
2023-02-28T01:05:58.786Z,101802.52
2023-02-28T01:08:27.891Z,101803.02
2023-02-28T01:10:55.970Z,101798.94
2023-02-28T01:13:26.379Z,101801.25
2023-02-28T01:15:57.137Z,101800.21
2023-02-28T01:18:26.638Z,101801.47
2023-02-28T01:20:55.303Z,101802.56
2023-02-28T01:23:25.221Z,101804.78
2023-02-28T01:25:53.902Z,101802.31
2023-02-28T01:28:22.382Z,101800.20
2023-02-28T01:30:52.264Z,101800.17
2023-02-28T01:33:20.680Z,101803.45
2023-02-28T01:35:49.424Z,101801.99
2023-02-28T01:38:22.450Z,101800.91
2023-02-28T01:40:51.975Z,101799.73
2023-02-28T01:43:32.627Z,101801.48
2023-02-28T01:46:00.937Z,101803.87
2023-02-28T01:48:35.535Z,101804.65
2023-02-28T01:51:10.920Z,101804.13
2023-02-28T01:53:47.089Z,101809.49
2023-02-28T01:56:21.686Z,101808.12
2023-02-28T01:58:55.341Z,101810.98
2023-02-28T02:01:27.331Z,101807.52
2023-02-28T02:04:02.372Z,101806.95
2023-02-28T02:06:39.567Z,101802.73
2023-02-28T02:09:09.249Z,101805.91
2023-02-28T02:11:40.201Z,101801.95
2023-02-28T02:14:39.783Z,101801.52
2023-02-28T02:17:14.663Z,101803.63
2023-02-28T02:20:10.444Z,101806.83
2023-02-28T02:23:16.593Z,101802.08
2023-02-28T02:26:01.361Z,101797.42
2023-02-28T02:28:54.419Z,101800.65
2023-02-28T02:31:41.431Z,101800.65
2023-02-28T02:34:24.858Z,101801.37
2023-02-28T02:37:02.157Z,101801.21
2023-02-28T02:39:46.193Z,101802.56
2023-02-28T02:42:23.558Z,101802.30
2023-02-28T02:44:58.076Z,101806.90
2023-02-28T02:47:28.843Z,101804.15
2023-02-28T02:50:02.032Z,101807.14
2023-02-28T02:52:39.887Z,101806.42
2023-02-28T02:55:12.227Z,101812.02
2023-02-28T02:57:48.797Z,101813.56
2023-02-28T03:00:20.669Z,101815.63
2023-02-28T03:02:51.357Z,101817.00
2023-02-28T03:05:32.237Z,101814.48
2023-02-28T03:08:00.427Z,101814.99
2023-02-28T03:10:40.277Z,101818.41
2023-02-28T03:13:26.802Z,101822.10
2023-02-28T03:16:00.454Z,101818.73
2023-02-28T03:18:53.416Z,101822.69
2023-02-28T03:21:46.578Z,101825.19
2023-02-28T03:24:20.494Z,101825.20
2023-02-28T03:26:57.057Z,101824.35
2023-02-28T03:29:34.753Z,101825.50
2023-02-28T03:32:30.083Z,101825.60
2023-02-28T03:35:07.141Z,101826.27
2023-02-28T03:37:39.514Z,101826.52
2023-02-28T03:40:13.892Z,101830.61
2023-02-28T03:42:45.552Z,101832.93
2023-02-28T03:45:19.324Z,101834.78
2023-02-28T03:48:19.216Z,101834.38
2023-02-28T03:50:50.644Z,101835.75
2023-02-28T03:53:40.449Z,101834.61
2023-02-28T03:56:17.422Z,101834.63
2023-02-28T03:58:49.793Z,101835.39
2023-02-28T04:01:35.227Z,101837.23
2023-02-28T04:04:04.196Z,101842.11
2023-02-28T04:06:34.182Z,101841.45
2023-02-28T04:09:04.891Z,101842.84
2023-02-28T04:11:43.018Z,101840.81
2023-02-28T04:14:11.915Z,101842.50
2023-02-28T04:16:42.435Z,101840.34
2023-02-28T04:19:13.169Z,101840.56
2023-02-28T04:21:47.598Z,101839.17
2023-02-28T04:24:18.363Z,101839.73
2023-02-28T04:26:49.278Z,101841.63
2023-02-28T04:29:29.675Z,101841.45
2023-02-28T04:32:01.261Z,101840.73
2023-02-28T04:34:32.576Z,101847.30
2023-02-28T04:37:17.031Z,101845.11
2023-02-28T04:39:45.665Z,101841.91
2023-02-28T04:42:14.900Z,101847.39
2023-02-28T04:44:42.927Z,101845.97
2023-02-28T04:47:11.415Z,101850.41
2023-02-28T04:49:39.610Z,101846.41
2023-02-28T04:52:08.786Z,101847.46
2023-02-28T04:54:37.174Z,101849.26
2023-02-28T04:57:05.647Z,101852.60
2023-02-28T04:59:34.126Z,101861.09
2023-02-28T05:02:08.095Z,101862.39
2023-02-28T05:04:37.303Z,101865.56
2023-02-28T05:07:05.599Z,101865.77
2023-02-28T05:09:34.420Z,101867.81
2023-02-28T05:12:02.571Z,101865.82
2023-02-28T05:14:30.739Z,101868.66
2023-02-28T05:16:58.842Z,101869.13
2023-02-28T05:19:26.871Z,101869.63
2023-02-28T05:21:56.487Z,101871.80
2023-02-28T05:24:24.793Z,101870.31
2023-02-28T05:26:55.025Z,101870.15
2023-02-28T05:29:23.712Z,101873.84
2023-02-28T05:31:51.837Z,101875.87
2023-02-28T05:34:20.114Z,101875.02
2023-02-28T05:36:48.212Z,101880.61
2023-02-28T05:39:16.161Z,101878.36
2023-02-28T05:41:44.861Z,101881.10
2023-02-28T05:44:13.595Z,101882.45
2023-02-28T05:46:41.917Z,101887.03
2023-02-28T05:49:10.162Z,101886.52
2023-02-28T05:51:41.085Z,101889.10
2023-02-28T05:54:09.912Z,101892.39
2023-02-28T05:56:40.977Z,101896.33
2023-02-28T05:59:09.041Z,101894.58
2023-02-28T06:01:49.433Z,101895.60
2023-02-28T06:04:31.139Z,101896.02
2023-02-28T06:07:00.088Z,101902.70
2023-02-28T06:09:28.435Z,101901.95
2023-02-28T06:12:04.839Z,101902.95
2023-02-28T06:14:34.738Z,101902.88
2023-02-28T06:17:03.979Z,101904.73
2023-02-28T06:19:32.428Z,101907.48
2023-02-28T06:22:00.903Z,101908.39
2023-02-28T06:24:29.250Z,101905.23
2023-02-28T06:26:58.774Z,101903.31
2023-02-28T06:29:27.136Z,101901.73
2023-02-28T06:31:55.152Z,101902.88
2023-02-28T06:34:23.587Z,101904.86
2023-02-28T06:36:52.816Z,101909.84
2023-02-28T06:39:21.006Z,101908.21
2023-02-28T06:41:55.468Z,101912.21
2023-02-28T06:44:25.310Z,101909.77
2023-02-28T06:46:53.377Z,101908.20
2023-02-28T06:49:21.534Z,101909.66
2023-02-28T06:51:49.846Z,101906.42
2023-02-28T06:54:17.908Z,101905.03
2023-02-28T06:56:46.168Z,101904.98
2023-02-28T06:59:14.479Z,101902.13
2023-02-28T07:01:42.535Z,101898.60
2023-02-28T07:04:10.683Z,101899.87
2023-02-28T07:06:38.750Z,101897.36
2023-02-28T07:09:06.873Z,101894.67
2023-02-28T07:11:35.301Z,101891.45
2023-02-28T07:14:03.583Z,101890.98
2023-02-28T07:16:31.589Z,101895.07
2023-02-28T07:18:59.718Z,101894.69
2023-02-28T07:21:28.030Z,101893.20
2023-02-28T07:23:57.807Z,101891.20
2023-02-28T07:26:25.871Z,101888.73
2023-02-28T07:28:54.248Z,101892.06
2023-02-28T07:31:22.349Z,101889.65
2023-02-28T07:33:50.535Z,101890.42
2023-02-28T07:36:19.985Z,101892.89
2023-02-28T07:38:51.275Z,101897.27
2023-02-28T07:41:22.057Z,101899.02
2023-02-28T07:43:50.170Z,101898.92
2023-02-28T07:46:19.547Z,101898.27
2023-02-28T07:48:47.540Z,101899.77
2023-02-28T07:51:15.808Z,101897.39
2023-02-28T07:53:43.771Z,101893.31
2023-02-28T07:56:12.258Z,101892.09
2023-02-28T07:58:40.227Z,101894.00
2023-02-28T08:01:10.299Z,101896.77
2023-02-28T08:03:39.672Z,101893.94
2023-02-28T08:06:09.971Z,101897.52
2023-02-28T08:08:37.959Z,101897.02
2023-02-28T08:11:06.215Z,101890.27
2023-02-28T08:13:34.919Z,101887.45
2023-02-28T08:16:04.026Z,101889.05
2023-02-28T08:18:34.106Z,101885.14
2023-02-28T08:21:11.128Z,101883.15
2023-02-28T08:23:39.270Z,101882.58
2023-02-28T08:26:07.851Z,101881.34
2023-02-28T08:28:35.787Z,101881.97
2023-02-28T08:31:09.362Z,101886.08
2023-02-28T08:33:40.104Z,101885.80
2023-02-28T08:36:09.607Z,101885.00
2023-02-28T08:38:38.542Z,101884.67
2023-02-28T08:41:11.578Z,101882.86
2023-02-28T08:43:40.792Z,101880.30
2023-02-28T08:46:11.586Z,101877.52
2023-02-28T08:48:40.801Z,101875.18
2023-02-28T08:51:22.600Z,101877.42
2023-02-28T08:53:50.582Z,101877.02
2023-02-28T08:56:18.789Z,101876.08
2023-02-28T08:58:49.349Z,101876.02
2023-02-28T09:01:22.952Z,101873.95
2023-02-28T09:03:52.654Z,101870.83
2023-02-28T09:06:22.778Z,101877.19
2023-02-28T09:08:51.450Z,101880.00
2023-02-28T09:11:20.218Z,101880.09
2023-02-28T09:13:48.223Z,101879.63
2023-02-28T09:16:17.636Z,101882.39
2023-02-28T09:18:46.229Z,101886.14
2023-02-28T09:21:20.398Z,101887.36
2023-02-28T09:23:50.612Z,101891.36
2023-02-28T09:26:34.775Z,101895.14
2023-02-28T09:29:10.822Z,101892.13
2023-02-28T09:31:38.911Z,101891.16
2023-02-28T09:34:07.959Z,101893.13
2023-02-28T09:36:45.162Z,101896.96
2023-02-28T09:39:16.623Z,101893.79
2023-02-28T09:41:51.296Z,101892.77
2023-02-28T09:44:38.825Z,101894.96
2023-02-28T09:47:42.075Z,101895.17
2023-02-28T09:50:28.089Z,101891.88
2023-02-28T09:52:56.849Z,101892.67
2023-02-28T09:55:41.449Z,101893.68
2023-02-28T09:58:32.432Z,101891.60
2023-02-28T10:01:31.234Z,101887.17
2023-02-28T10:04:26.366Z,101889.79
2023-02-28T10:06:54.685Z,101891.77
2023-02-28T10:09:28.494Z,101896.65
2023-02-28T10:12:03.044Z,101892.52
2023-02-28T10:14:35.286Z,101889.23
2023-02-28T10:17:11.442Z,101883.45
2023-02-28T10:19:44.839Z,101885.95
2023-02-28T10:22:23.371Z,101886.20
2023-02-28T10:24:54.046Z,101883.72
2023-02-28T10:27:24.958Z,101887.45
2023-02-28T10:30:01.596Z,101887.05
2023-02-28T10:32:37.122Z,101887.23
2023-02-28T10:35:28.564Z,101887.14
2023-02-28T10:38:01.998Z,101882.88
2023-02-28T10:40:39.505Z,101880.65
2023-02-28T10:43:21.618Z,101882.69
2023-02-28T10:46:10.899Z,101877.95
2023-02-28T10:48:51.173Z,101874.23
2023-02-28T10:51:20.748Z,101875.49
2023-02-28T10:54:03.363Z,101872.89
2023-02-28T10:56:33.770Z,101874.55
2023-02-28T10:59:31.385Z,101867.31
2023-02-28T11:02:00.292Z,101866.27
2023-02-28T11:04:33.737Z,101865.56
2023-02-28T11:07:22.161Z,101870.30
2023-02-28T11:09:55.203Z,101866.56
2023-02-28T11:12:47.119Z,101865.05
2023-02-28T11:15:27.192Z,101862.42
2023-02-28T11:18:05.610Z,101862.08
2023-02-28T11:20:35.415Z,101854.21
2023-02-28T11:23:06.099Z,101858.27
2023-02-28T11:25:37.909Z,101849.80
2023-02-28T11:28:24.109Z,101848.83
2023-02-28T11:31:03.137Z,101844.85
2023-02-28T11:33:42.354Z,101834.55
2023-02-28T11:36:18.025Z,101830.08
2023-02-28T11:38:50.615Z,101827.62
2023-02-28T11:41:56.793Z,101826.85
2023-02-28T11:44:42.365Z,101826.15
2023-02-28T11:47:41.348Z,101823.69
2023-02-28T11:50:12.461Z,101822.33
2023-02-28T11:52:57.328Z,101813.04
2023-02-28T11:55:30.264Z,101805.08
2023-02-28T11:58:52.670Z,101802.45
2023-02-28T12:02:01.137Z,101792.18
2023-02-28T12:04:43.284Z,101789.38
2023-02-28T12:07:23.269Z,101786.89
2023-02-28T12:09:57.280Z,101778.48
2023-02-28T12:12:40.205Z,101779.56
2023-02-28T12:15:45.524Z,101774.50
2023-02-28T12:18:25.157Z,101768.42
2023-02-28T12:21:18.149Z,101766.25
2023-02-28T12:23:46.079Z,101767.34
2023-02-28T12:26:14.660Z,101766.86
2023-02-28T12:29:31.990Z,101767.66
2023-02-28T12:32:07.759Z,101763.27
2023-02-28T12:34:40.603Z,101756.02
2023-02-28T12:37:18.645Z,101754.40
2023-02-28T12:39:51.115Z,101753.89
2023-02-28T12:42:29.527Z,101754.42
2023-02-28T12:45:10.363Z,101747.98
2023-02-28T12:47:43.588Z,101746.36
2023-02-28T12:50:13.100Z,101744.83
2023-02-28T12:53:06.536Z,101740.63
2023-02-28T12:55:58.062Z,101737.23
2023-02-28T12:58:42.416Z,101740.85
2023-02-28T13:01:37.753Z,101738.08
2023-02-28T13:04:18.823Z,101732.49
2023-02-28T13:07:05.141Z,101732.25
2023-02-28T13:09:33.479Z,101734.58
2023-02-28T13:12:01.862Z,101735.66
2023-02-28T13:14:35.898Z,101738.64
2023-02-28T13:17:13.481Z,101732.46
2023-02-28T13:19:55.787Z,101732.68
2023-02-28T13:22:26.698Z,101729.65
2023-02-28T13:24:56.644Z,101730.04
2023-02-28T13:27:25.317Z,101727.64
2023-02-28T13:29:54.707Z,101725.27
2023-02-28T13:32:41.404Z,101718.90
2023-02-28T13:35:09.378Z,101720.18
2023-02-28T13:37:44.737Z,101715.10
2023-02-28T13:40:12.704Z,101716.02
2023-02-28T13:42:51.748Z,101717.77
2023-02-28T13:45:31.258Z,101711.48
2023-02-28T13:48:05.406Z,101713.48
2023-02-28T13:50:39.179Z,101713.14
2023-02-28T13:53:16.557Z,101708.37
2023-02-28T13:55:55.086Z,101704.80
2023-02-28T13:59:05.139Z,101702.25
2023-02-28T14:01:45.472Z,101699.38
2023-02-28T14:04:49.565Z,101693.14
2023-02-28T14:07:30.545Z,101687.30
2023-02-28T14:10:06.613Z,101683.52
2023-02-28T14:12:57.657Z,101680.58
2023-02-28T14:15:35.110Z,101675.73
2023-02-28T14:18:06.950Z,101672.77
2023-02-28T14:20:35.225Z,101671.94
2023-02-28T14:23:15.640Z,101669.19
2023-02-28T14:25:53.027Z,101664.89
2023-02-28T14:28:42.002Z,101665.02
2023-02-28T14:31:17.646Z,101666.17
2023-02-28T14:34:23.382Z,101663.06
2023-02-28T14:36:55.906Z,101661.33
2023-02-28T14:39:26.933Z,101659.42
2023-02-28T14:41:55.208Z,101661.60
2023-02-28T14:44:28.986Z,101664.08
2023-02-28T14:47:07.557Z,101666.59
2023-02-28T14:49:39.738Z,101665.34
2023-02-28T14:52:16.547Z,101660.13
2023-02-28T14:54:45.930Z,101654.10
2023-02-28T14:57:29.385Z,101654.00
2023-02-28T15:00:11.685Z,101658.02
2023-02-28T15:02:41.545Z,101655.71
2023-02-28T15:05:18.519Z,101653.77
2023-02-28T15:07:48.907Z,101657.83
2023-02-28T15:10:17.016Z,101654.85
2023-02-28T15:12:54.679Z,101652.55
2023-02-28T15:15:31.929Z,101655.34
2023-02-28T15:18:15.930Z,101656.27
2023-02-28T15:20:45.684Z,101656.67
2023-02-28T15:23:14.189Z,101655.91
2023-02-28T15:25:43.285Z,101653.92
2023-02-28T15:28:16.927Z,101651.23
2023-02-28T15:31:01.053Z,101651.61
2023-02-28T15:33:31.950Z,101650.77
2023-02-28T15:36:18.679Z,101650.79
2023-02-28T15:38:52.687Z,101646.89
2023-02-28T15:41:30.109Z,101644.69
2023-02-28T15:44:36.297Z,101646.38
2023-02-28T15:47:07.691Z,101653.33
2023-02-28T15:49:46.813Z,101652.95
2023-02-28T15:52:22.576Z,101655.30
2023-02-28T15:54:50.745Z,101654.96
2023-02-28T15:57:22.840Z,101655.61
2023-02-28T15:59:57.477Z,101657.81
2023-02-28T16:02:37.413Z,101658.27
2023-02-28T16:05:11.418Z,101663.48
2023-02-28T16:07:41.455Z,101660.52
2023-02-28T16:10:12.443Z,101657.67
2023-02-28T16:12:41.856Z,101666.29
2023-02-28T16:15:20.779Z,101665.45
2023-02-28T16:17:49.481Z,101665.47
2023-02-28T16:20:26.554Z,101666.17
2023-02-28T16:22:55.658Z,101664.30
2023-02-28T16:25:37.200Z,101668.86
2023-02-28T16:28:09.810Z,101670.40
2023-02-28T16:30:37.816Z,101676.06
2023-02-28T16:33:09.024Z,101674.23
2023-02-28T16:35:37.092Z,101682.44
2023-02-28T16:38:05.300Z,101683.09
2023-02-28T16:40:36.157Z,101685.00
2023-02-28T16:43:16.530Z,101682.15
2023-02-28T16:45:44.817Z,101681.66
2023-02-28T16:48:16.338Z,101679.52
2023-02-28T16:50:47.433Z,101689.27
2023-02-28T16:53:16.221Z,101689.82
2023-02-28T16:55:44.924Z,101688.15
2023-02-28T16:58:18.432Z,101688.89
2023-02-28T17:00:46.429Z,101689.49
2023-02-28T17:03:32.662Z,101687.58
2023-02-28T17:06:02.240Z,101686.11
2023-02-28T17:08:33.195Z,101683.84
2023-02-28T17:11:02.822Z,101679.02
2023-02-28T17:13:31.000Z,101675.58
2023-02-28T17:15:59.185Z,101677.42
2023-02-28T17:18:27.989Z,101678.61
2023-02-28T17:20:55.929Z,101682.95
2023-02-28T17:23:25.032Z,101687.00
2023-02-28T17:25:57.950Z,101688.23
2023-02-28T17:28:26.509Z,101694.51
2023-02-28T17:30:54.699Z,101696.03
2023-02-28T17:33:22.742Z,101700.11
2023-02-28T17:35:50.841Z,101699.39
2023-02-28T17:38:20.662Z,101704.65
2023-02-28T17:40:48.701Z,101704.15
2023-02-28T17:43:16.980Z,101703.98
2023-02-28T17:45:45.140Z,101707.75
2023-02-28T17:48:13.848Z,101702.70
2023-02-28T17:50:42.224Z,101699.96
2023-02-28T17:53:10.412Z,101702.28
2023-02-28T17:55:38.765Z,101705.52
2023-02-28T17:58:07.035Z,101705.55
2023-02-28T18:00:35.018Z,101703.02
2023-02-28T18:03:03.143Z,101703.95
2023-02-28T18:05:32.684Z,101709.43
2023-02-28T18:08:01.681Z,101706.58
2023-02-28T18:10:29.954Z,101698.30
2023-02-28T18:12:58.019Z,101694.08
2023-02-28T18:15:26.198Z,101694.23
2023-02-28T18:17:54.178Z,101691.37
2023-02-28T18:20:22.642Z,101694.79
2023-02-28T18:22:50.724Z,101689.78
2023-02-28T18:25:19.090Z,101683.85
2023-02-28T18:27:59.152Z,101681.64
2023-02-28T18:30:32.946Z,101682.04
2023-02-28T18:33:02.164Z,101676.98
2023-02-28T18:35:37.672Z,101671.55
2023-02-28T18:38:19.410Z,101673.09
2023-02-28T18:40:59.426Z,101668.19
2023-02-28T18:43:28.527Z,101668.10
2023-02-28T18:45:56.598Z,101667.51
2023-02-28T18:48:24.906Z,101668.98
2023-02-28T18:50:53.052Z,101669.95
2023-02-28T18:53:21.019Z,101664.79
2023-02-28T18:55:49.014Z,101661.13
2023-02-28T18:58:17.160Z,101656.90
2023-02-28T19:00:45.430Z,101654.52
2023-02-28T19:03:13.857Z,101647.24
2023-02-28T19:05:41.999Z,101643.66
2023-02-28T19:08:10.473Z,101639.70
2023-02-28T19:10:40.416Z,101637.08
2023-02-28T19:13:08.367Z,101633.11
2023-02-28T19:15:36.629Z,101633.64
2023-02-28T19:18:04.731Z,101641.16
2023-02-28T19:20:32.762Z,101643.40
2023-02-28T19:23:01.517Z,101648.84
2023-02-28T19:25:29.620Z,101655.11
2023-02-28T19:27:57.844Z,101653.43
2023-02-28T19:30:26.393Z,101649.55
2023-02-28T19:32:54.943Z,101648.89
2023-02-28T19:35:23.143Z,101657.56
2023-02-28T19:37:52.856Z,101669.71
2023-02-28T19:40:20.814Z,101674.48
2023-02-28T19:42:48.781Z,101672.64
2023-02-28T19:45:16.852Z,101678.16
2023-02-28T19:47:44.921Z,101681.40
2023-02-28T19:50:12.967Z,101684.02
2023-02-28T19:55:10.366Z,101685.98
2023-02-28T19:57:38.343Z,101692.23
2023-02-28T20:00:07.279Z,101693.40
2023-02-28T20:02:41.753Z,101698.50
2023-02-28T20:05:10.330Z,101698.47
2023-02-28T20:07:38.335Z,101693.52
2023-02-28T20:10:07.003Z,101696.15
2023-02-28T20:12:35.058Z,101692.88
2023-02-28T20:15:03.843Z,101686.25
2023-02-28T20:17:31.913Z,101688.75
2023-02-28T20:19:59.887Z,101690.91
2023-02-28T20:22:28.114Z,101694.66
2023-02-28T20:24:56.137Z,101699.08
2023-02-28T20:27:24.105Z,101699.27
2023-02-28T20:29:53.501Z,101690.96
2023-02-28T20:32:21.605Z,101689.09
2023-02-28T20:34:49.537Z,101689.86
2023-02-28T20:37:17.508Z,101690.52
2023-02-28T20:39:46.004Z,101687.08
2023-02-28T20:42:13.967Z,101684.85
2023-02-28T20:44:41.973Z,101680.59
2023-02-28T20:47:09.903Z,101678.50
2023-02-28T20:49:37.869Z,101674.59
2023-02-28T20:52:05.866Z,101676.27
2023-02-28T20:54:36.260Z,101679.44
2023-02-28T20:57:04.338Z,101679.67
2023-02-28T20:59:32.532Z,101672.98
2023-02-28T21:02:00.572Z,101660.52
2023-02-28T21:04:29.160Z,101656.60
2023-02-28T21:06:57.125Z,101661.79
2023-02-28T21:09:25.507Z,101666.65
2023-02-28T21:11:54.455Z,101670.85
2023-02-28T21:14:22.475Z,101668.45
2023-02-28T21:16:50.547Z,101670.51
2023-02-28T21:19:19.031Z,101675.41
2023-02-28T21:21:48.401Z,101672.02
2023-02-28T21:24:18.986Z,101674.77
2023-02-28T21:26:47.949Z,101674.14
2023-02-28T21:29:16.223Z,101677.99
2023-02-28T21:31:44.648Z,101677.18
2023-02-28T21:34:13.804Z,101673.90
2023-02-28T21:36:45.926Z,101670.88
2023-02-28T21:39:21.959Z,101667.02
2023-02-28T21:41:50.296Z,101668.63
2023-02-28T21:44:18.959Z,101669.19
2023-02-28T21:46:50.424Z,101667.46
2023-02-28T21:49:18.910Z,101672.17
2023-02-28T21:51:46.857Z,101670.63
2023-02-28T21:54:14.859Z,101670.14
2023-02-28T21:56:43.044Z,101671.89
2023-02-28T21:59:11.298Z,101668.52
2023-02-28T22:01:43.609Z,101669.88
2023-02-28T22:04:21.567Z,101671.44
2023-02-28T22:06:52.853Z,101669.52
2023-02-28T22:09:21.725Z,101672.25
2023-02-28T22:11:50.612Z,101667.29
2023-02-28T22:14:18.852Z,101671.02
2023-02-28T22:16:52.375Z,101677.08
2023-02-28T22:19:22.715Z,101677.44
2023-02-28T22:21:51.825Z,101674.89
2023-02-28T22:24:23.541Z,101674.54
2023-02-28T22:26:52.634Z,101672.48
2023-02-28T22:29:21.328Z,101674.25
2023-02-28T22:31:49.729Z,101672.04
2023-02-28T22:34:17.938Z,101672.89
2023-02-28T22:36:46.065Z,101666.25
2023-02-28T22:39:14.119Z,101664.63
2023-02-28T22:41:42.188Z,101662.11
2023-02-28T22:44:11.185Z,101662.61
2023-02-28T22:46:39.532Z,101659.86
2023-02-28T22:49:08.035Z,101663.60
2023-02-28T22:51:36.740Z,101664.29
2023-02-28T22:54:05.105Z,101659.25
2023-02-28T22:56:33.344Z,101661.85
2023-02-28T22:59:02.831Z,101664.05
2023-02-28T23:01:33.625Z,101664.39
2023-02-28T23:04:02.937Z,101665.29
2023-02-28T23:06:42.350Z,101662.10
2023-02-28T23:09:18.224Z,101663.64
2023-02-28T23:11:49.044Z,101660.46
2023-02-28T23:14:19.261Z,101661.25
2023-02-28T23:16:55.031Z,101665.27
2023-02-28T23:19:29.936Z,101665.77
2023-02-28T23:21:59.548Z,101664.92
2023-02-28T23:24:30.321Z,101670.50
2023-02-28T23:27:01.965Z,101668.94
2023-02-28T23:29:30.114Z,101675.71
2023-02-28T23:31:58.247Z,101679.18
2023-02-28T23:34:28.250Z,101681.10
2023-02-28T23:37:01.734Z,101677.07
2023-02-28T23:39:32.452Z,101673.86
2023-02-28T23:42:01.979Z,101666.02
2023-02-28T23:44:30.213Z,101666.16
2023-02-28T23:46:58.290Z,101667.45
2023-02-28T23:49:26.374Z,101665.54
2023-02-28T23:51:54.685Z,101662.37
2023-02-28T23:54:23.006Z,101659.18
2023-02-28T23:56:51.087Z,101659.02
2023-02-28T23:59:19.669Z,101665.23
